KOGS

Details ICAO KOGS (OGS)
Name OGDENSBURG INTL
Region United States
Timezone America/New_York (UTC-5.0)
Plans Departing 6
Arriving 4
Stats Elevation 297 ft / 91 m (AMSL)
Location 44.681849° -75.465498°
Runways 1
Magnetic Variation 13.170° W
Sunrise 2017-12-15 12:33:40 UTC / 2017-12-15 07:33:40 Local
Sunset 2017-12-15 21:23:21 UTC / 2017-12-15 16:23:21 Local
Advertisement - Login to hide

Runways

ID Width Length Bearing (true) Bearing (mag) Surface Threshold Offset Overrun Length
09 150 ft / 46 m 5,188 ft / 1,581 m 75.96° 89.13° Asphalt 0 ft / 0 m 0 ft / 0 m
27 150 ft / 46 m 5,188 ft / 1,581 m 255.97° 269.14° Asphalt 0 ft / 0 m 0 ft / 0 m

Map

Weather


0- 5 10 15 20 25 30 35+ Temperature / ° C

Clouds and Precipitation
Forecast for 2017-12-15 12:00 UTC. Updated an hour ago

Ground ~20,000 ft ~40,000 ft Winds

METAR

KOGS 150835Z AUTO 00000KT 10SM CLR M24/M26 A3001 RMK AO2 T12401260

TAF

Not found

Frequencies

Recorded 118.52 MHz AWOS 3
Unicom 122.80 MHz CTAF/UNICOM
Warning: Do not use this data for real-world aviation or navigation. No guarantee of current accuracy is given.